Hoxeyville, Michigan
Current Conditions -  °F | °C
As of 11:16 AM on Thursday 30 Oct 2014 (Local Time) from KCAD Reporting Station
Overcast Overcast  
Wind Chill:   Ceiling: 3400
Heat Index:   Visibility: 10mi
Dew Point:   Wind: 5mph
Humidity: 85%   Direction: 230°SW
Pressure: 30.06"   Gusts: NA
Location:  44.2433°N, 85.5328°W
Report Text: KCAD 301516Z AUTO 23004KT 10SM SCT029 OVC034 05/03 A3006 RMK AO2 T00540031
Loading
Personal Weather Stations






























Interactive Weather Map
Tropical Storm Tracking
New forecast layout! Learn more

10-Day Weather Forecast

Advertisements
Track Severe Weather on mobile